sensor_id;sensor_type;location;lat;lon;timestamp;temperature;humidity
35700;DHT22;21818;51.078;12.108;2024-01-06T00:01:02;10.50;90.00
35700;DHT22;21818;51.078;12.108;2024-01-06T00:03:28;10.50;90.10
35700;DHT22;21818;51.078;12.108;2024-01-06T00:05:53;10.50;90.10
35700;DHT22;21818;51.078;12.108;2024-01-06T00:08:19;10.50;90.10
35700;DHT22;21818;51.078;12.108;2024-01-06T00:10:45;10.50;90.10
35700;DHT22;21818;51.078;12.108;2024-01-06T00:13:10;10.40;90.10
35700;DHT22;21818;51.078;12.108;2024-01-06T00:15:36;10.40;90.20
35700;DHT22;21818;51.078;12.108;2024-01-06T00:18:02;10.40;90.20
35700;DHT22;21818;51.078;12.108;2024-01-06T00:20:28;10.40;90.20
35700;DHT22;21818;51.078;12.108;2024-01-06T00:22:54;10.40;90.20
35700;DHT22;21818;51.078;12.108;2024-01-06T00:25:21;10.40;90.20
35700;DHT22;21818;51.078;12.108;2024-01-06T00:27:47;10.40;90.50
35700;DHT22;21818;51.078;12.108;2024-01-06T00:30:13;10.40;90.20
35700;DHT22;21818;51.078;12.108;2024-01-06T00:32:38;10.40;90.20
35700;DHT22;21818;51.078;12.108;2024-01-06T00:35:04;10.40;90.30
35700;DHT22;21818;51.078;12.108;2024-01-06T00:37:30;10.40;90.20
35700;DHT22;21818;51.078;12.108;2024-01-06T00:39:55;10.40;90.30
35700;DHT22;21818;51.078;12.108;2024-01-06T00:42:21;10.30;90.30
35700;DHT22;21818;51.078;12.108;2024-01-06T00:44:46;10.20;90.30
35700;DHT22;21818;51.078;12.108;2024-01-06T00:47:12;10.20;90.40
35700;DHT22;21818;51.078;12.108;2024-01-06T00:49:38;10.20;90.40
35700;DHT22;21818;51.078;12.108;2024-01-06T00:52:03;10.20;90.40
35700;DHT22;21818;51.078;12.108;2024-01-06T00:54:29;10.10;90.40
35700;DHT22;21818;51.078;12.108;2024-01-06T00:56:54;10.10;90.50
35700;DHT22;21818;51.078;12.108;2024-01-06T00:59:20;10.10;90.50
35700;DHT22;21818;51.078;12.108;2024-01-06T01:01:46;10.10;90.50
35700;DHT22;21818;51.078;12.108;2024-01-06T01:04:11;10.10;90.40
35700;DHT22;21818;51.078;12.108;2024-01-06T01:06:37;10.10;90.50
35700;DHT22;21818;51.078;12.108;2024-01-06T01:09:02;10.20;90.50
35700;DHT22;21818;51.078;12.108;2024-01-06T01:11:29;10.10;90.40
35700;DHT22;21818;51.078;12.108;2024-01-06T01:13:55;10.10;90.40
35700;DHT22;21818;51.078;12.108;2024-01-06T01:16:21;10.10;90.40
35700;DHT22;21818;51.078;12.108;2024-01-06T01:18:46;10.10;90.50
35700;DHT22;21818;51.078;12.108;2024-01-06T01:21:12;10.10;90.50
35700;DHT22;21818;51.078;12.108;2024-01-06T01:23:37;10.10;90.40
35700;DHT22;21818;51.078;12.108;2024-01-06T01:26:03;10.10;90.40
35700;DHT22;21818;51.078;12.108;2024-01-06T01:28:28;10.10;90.40
35700;DHT22;21818;51.078;12.108;2024-01-06T01:30:54;10.10;90.40
35700;DHT22;21818;51.078;12.108;2024-01-06T01:33:20;10.10;90.40
35700;DHT22;21818;51.078;12.108;2024-01-06T01:35:45;10.10;90.40
35700;DHT22;21818;51.078;12.108;2024-01-06T01:38:11;10.10;90.40
35700;DHT22;21818;51.078;12.108;2024-01-06T01:40:36;10.10;90.40
35700;DHT22;21818;51.078;12.108;2024-01-06T01:43:02;10.00;90.50
35700;DHT22;21818;51.078;12.108;2024-01-06T01:45:27;10.00;90.50
35700;DHT22;21818;51.078;12.108;2024-01-06T01:47:53;10.00;90.50
35700;DHT22;21818;51.078;12.108;2024-01-06T01:50:18;9.90;90.50
35700;DHT22;21818;51.078;12.108;2024-01-06T01:52:46;9.90;90.60
35700;DHT22;21818;51.078;12.108;2024-01-06T01:55:11;9.90;90.60
35700;DHT22;21818;51.078;12.108;2024-01-06T01:57:37;9.80;90.60
35700;DHT22;21818;51.078;12.108;2024-01-06T02:00:04;9.80;90.60
35700;DHT22;21818;51.078;12.108;2024-01-06T02:02:30;9.80;90.60
35700;DHT22;21818;51.078;12.108;2024-01-06T02:04:56;9.70;90.60
35700;DHT22;21818;51.078;12.108;2024-01-06T02:07:21;9.70;90.70
35700;DHT22;21818;51.078;12.108;2024-01-06T02:09:47;9.80;90.60
35700;DHT22;21818;51.078;12.108;2024-01-06T02:12:13;9.80;90.60
35700;DHT22;21818;51.078;12.108;2024-01-06T02:14:38;9.80;90.70
35700;DHT22;21818;51.078;12.108;2024-01-06T02:17:04;9.80;90.70
35700;DHT22;21818;51.078;12.108;2024-01-06T02:19:29;9.80;90.70
35700;DHT22;21818;51.078;12.108;2024-01-06T02:21:55;9.80;90.60
35700;DHT22;21818;51.078;12.108;2024-01-06T02:24:21;9.80;90.70
35700;DHT22;21818;51.078;12.108;2024-01-06T02:26:46;9.80;90.70
35700;DHT22;21818;51.078;12.108;2024-01-06T02:29:12;9.80;90.70
35700;DHT22;21818;51.078;12.108;2024-01-06T02:31:38;9.80;90.60
35700;DHT22;21818;51.078;12.108;2024-01-06T02:34:03;9.80;90.70
35700;DHT22;21818;51.078;12.108;2024-01-06T02:36:29;9.80;90.70
35700;DHT22;21818;51.078;12.108;2024-01-06T02:38:54;9.70;90.70
35700;DHT22;21818;51.078;12.108;2024-01-06T02:41:20;9.80;90.80
35700;DHT22;21818;51.078;12.108;2024-01-06T02:43:46;9.80;90.80
35700;DHT22;21818;51.078;12.108;2024-01-06T02:46:12;9.80;90.70
35700;DHT22;21818;51.078;12.108;2024-01-06T02:48:38;9.80;90.60
35700;DHT22;21818;51.078;12.108;2024-01-06T02:51:03;9.80;90.60
35700;DHT22;21818;51.078;12.108;2024-01-06T02:53:29;9.80;90.60
35700;DHT22;21818;51.078;12.108;2024-01-06T02:55:54;9.80;90.60
35700;DHT22;21818;51.078;12.108;2024-01-06T02:58:20;9.70;90.70
35700;DHT22;21818;51.078;12.108;2024-01-06T03:00:46;9.70;90.70
35700;DHT22;21818;51.078;12.108;2024-01-06T03:03:11;9.70;90.70
35700;DHT22;21818;51.078;12.108;2024-01-06T03:05:37;9.70;90.70
35700;DHT22;21818;51.078;12.108;2024-01-06T03:08:03;9.60;90.60
35700;DHT22;21818;51.078;12.108;2024-01-06T03:10:29;9.60;90.70
35700;DHT22;21818;51.078;12.108;2024-01-06T03:12:55;9.60;90.70
35700;DHT22;21818;51.078;12.108;2024-01-06T03:15:20;9.60;90.70
35700;DHT22;21818;51.078;12.108;2024-01-06T03:17:46;9.60;90.70
35700;DHT22;21818;51.078;12.108;2024-01-06T03:20:11;9.60;90.70
35700;DHT22;21818;51.078;12.108;2024-01-06T03:22:37;9.60;90.60
35700;DHT22;21818;51.078;12.108;2024-01-06T03:25:03;9.60;90.70
35700;DHT22;21818;51.078;12.108;2024-01-06T03:27:29;9.50;90.60
35700;DHT22;21818;51.078;12.108;2024-01-06T03:29:55;9.50;90.60
35700;DHT22;21818;51.078;12.108;2024-01-06T03:32:21;9.50;90.60
35700;DHT22;21818;51.078;12.108;2024-01-06T03:34:46;9.60;90.60
35700;DHT22;21818;51.078;12.108;2024-01-06T03:37:12;9.60;90.60
35700;DHT22;21818;51.078;12.108;2024-01-06T03:39:38;9.50;90.60
35700;DHT22;21818;51.078;12.108;2024-01-06T03:42:03;9.50;90.60
35700;DHT22;21818;51.078;12.108;2024-01-06T03:44:29;9.50;90.60
35700;DHT22;21818;51.078;12.108;2024-01-06T03:46:56;9.50;90.50
35700;DHT22;21818;51.078;12.108;2024-01-06T03:49:23;9.50;90.60
35700;DHT22;21818;51.078;12.108;2024-01-06T03:51:49;9.50;90.60
35700;DHT22;21818;51.078;12.108;2024-01-06T03:54:14;9.50;90.60
35700;DHT22;21818;51.078;12.108;2024-01-06T03:56:40;9.40;90.60
35700;DHT22;21818;51.078;12.108;2024-01-06T03:59:06;9.40;90.70
35700;DHT22;21818;51.078;12.108;2024-01-06T04:01:31;9.40;90.70
35700;DHT22;21818;51.078;12.108;2024-01-06T04:04:00;9.40;90.70
35700;DHT22;21818;51.078;12.108;2024-01-06T04:06:26;9.40;90.80
35700;DHT22;21818;51.078;12.108;2024-01-06T04:08:52;9.40;90.70
35700;DHT22;21818;51.078;12.108;2024-01-06T04:11:20;9.40;90.70
35700;DHT22;21818;51.078;12.108;2024-01-06T04:13:46;9.40;90.70
35700;DHT22;21818;51.078;12.108;2024-01-06T04:16:11;9.40;90.70
35700;DHT22;21818;51.078;12.108;2024-01-06T04:18:37;9.40;90.70
35700;DHT22;21818;51.078;12.108;2024-01-06T04:21:02;9.40;90.70
35700;DHT22;21818;51.078;12.108;2024-01-06T04:23:28;9.40;90.60
35700;DHT22;21818;51.078;12.108;2024-01-06T04:25:54;9.40;90.60
35700;DHT22;21818;51.078;12.108;2024-01-06T04:28:19;9.40;90.60
35700;DHT22;21818;51.078;12.108;2024-01-06T04:30:45;9.40;90.70
35700;DHT22;21818;51.078;12.108;2024-01-06T04:33:10;9.40;90.60
35700;DHT22;21818;51.078;12.108;2024-01-06T04:35:36;9.40;90.60
35700;DHT22;21818;51.078;12.108;2024-01-06T04:38:01;9.40;90.60
35700;DHT22;21818;51.078;12.108;2024-01-06T04:40:27;9.40;90.70
35700;DHT22;21818;51.078;12.108;2024-01-06T04:42:53;9.30;90.60
35700;DHT22;21818;51.078;12.108;2024-01-06T04:45:18;9.30;90.70
35700;DHT22;21818;51.078;12.108;2024-01-06T04:47:45;9.30;90.70
35700;DHT22;21818;51.078;12.108;2024-01-06T04:50:10;9.30;90.70
35700;DHT22;21818;51.078;12.108;2024-01-06T04:52:36;9.30;90.70
35700;DHT22;21818;51.078;12.108;2024-01-06T04:55:02;9.30;90.70
35700;DHT22;21818;51.078;12.108;2024-01-06T04:57:27;9.30;90.70
35700;DHT22;21818;51.078;12.108;2024-01-06T04:59:53;9.30;90.70
35700;DHT22;21818;51.078;12.108;2024-01-06T05:02:18;9.20;90.70
35700;DHT22;21818;51.078;12.108;2024-01-06T05:04:44;9.20;90.80
35700;DHT22;21818;51.078;12.108;2024-01-06T05:07:10;9.20;90.80
35700;DHT22;21818;51.078;12.108;2024-01-06T05:09:35;9.20;90.80
35700;DHT22;21818;51.078;12.108;2024-01-06T05:12:01;9.20;90.70
35700;DHT22;21818;51.078;12.108;2024-01-06T05:14:26;9.20;90.70
35700;DHT22;21818;51.078;12.108;2024-01-06T05:16:52;9.20;90.70
35700;DHT22;21818;51.078;12.108;2024-01-06T05:19:18;9.30;90.70
35700;DHT22;21818;51.078;12.108;2024-01-06T05:21:47;9.20;90.70
35700;DHT22;21818;51.078;12.108;2024-01-06T05:24:13;9.20;90.70
35700;DHT22;21818;51.078;12.108;2024-01-06T05:26:38;9.10;90.70
35700;DHT22;21818;51.078;12.108;2024-01-06T05:29:04;9.10;90.70
35700;DHT22;21818;51.078;12.108;2024-01-06T05:31:30;9.10;90.70
35700;DHT22;21818;51.078;12.108;2024-01-06T05:33:55;9.20;90.70
35700;DHT22;21818;51.078;12.108;2024-01-06T05:36:21;9.20;90.70
35700;DHT22;21818;51.078;12.108;2024-01-06T05:38:46;9.20;90.70
35700;DHT22;21818;51.078;12.108;2024-01-06T05:41:12;9.20;90.70
35700;DHT22;21818;51.078;12.108;2024-01-06T05:43:38;9.20;90.70
35700;DHT22;21818;51.078;12.108;2024-01-06T05:46:04;9.10;90.60
35700;DHT22;21818;51.078;12.108;2024-01-06T05:48:30;9.10;90.60
35700;DHT22;21818;51.078;12.108;2024-01-06T05:50:55;9.10;90.60
35700;DHT22;21818;51.078;12.108;2024-01-06T05:53:21;9.00;90.60
35700;DHT22;21818;51.078;12.108;2024-01-06T05:55:47;9.00;90.70
35700;DHT22;21818;51.078;12.108;2024-01-06T05:58:12;9.00;90.70
35700;DHT22;21818;51.078;12.108;2024-01-06T06:00:38;9.10;90.70
35700;DHT22;21818;51.078;12.108;2024-01-06T06:03:04;9.10;90.70
35700;DHT22;21818;51.078;12.108;2024-01-06T06:05:30;9.10;90.60
35700;DHT22;21818;51.078;12.108;2024-01-06T06:07:55;9.10;90.70
35700;DHT22;21818;51.078;12.108;2024-01-06T06:10:21;9.10;90.60
35700;DHT22;21818;51.078;12.108;2024-01-06T06:12:47;9.10;90.70
35700;DHT22;21818;51.078;12.108;2024-01-06T06:15:12;9.10;90.60
35700;DHT22;21818;51.078;12.108;2024-01-06T06:17:39;9.20;90.60
35700;DHT22;21818;51.078;12.108;2024-01-06T06:20:05;9.20;90.60
35700;DHT22;21818;51.078;12.108;2024-01-06T06:22:32;9.30;90.60
35700;DHT22;21818;51.078;12.108;2024-01-06T06:24:58;9.30;90.60
35700;DHT22;21818;51.078;12.108;2024-01-06T06:27:24;9.30;90.50
35700;DHT22;21818;51.078;12.108;2024-01-06T06:29:50;9.30;90.50
35700;DHT22;21818;51.078;12.108;2024-01-06T06:32:15;9.30;90.50
35700;DHT22;21818;51.078;12.108;2024-01-06T06:34:41;9.30;90.50
35700;DHT22;21818;51.078;12.108;2024-01-06T06:37:07;9.30;90.50
35700;DHT22;21818;51.078;12.108;2024-01-06T06:39:33;9.20;90.50
35700;DHT22;21818;51.078;12.108;2024-01-06T06:42:00;9.20;90.50
35700;DHT22;21818;51.078;12.108;2024-01-06T06:44:26;9.20;90.50
35700;DHT22;21818;51.078;12.108;2024-01-06T06:46:52;9.20;90.50
35700;DHT22;21818;51.078;12.108;2024-01-06T06:49:17;9.30;90.50
35700;DHT22;21818;51.078;12.108;2024-01-06T06:51:43;9.30;90.40
35700;DHT22;21818;51.078;12.108;2024-01-06T06:54:13;9.40;90.30
35700;DHT22;21818;51.078;12.108;2024-01-06T06:56:39;9.50;90.30
35700;DHT22;21818;51.078;12.108;2024-01-06T06:59:04;9.50;90.20
35700;DHT22;21818;51.078;12.108;2024-01-06T07:01:30;9.60;90.20
35700;DHT22;21818;51.078;12.108;2024-01-06T07:03:56;9.60;90.20
35700;DHT22;21818;51.078;12.108;2024-01-06T07:06:22;9.60;90.20
35700;DHT22;21818;51.078;12.108;2024-01-06T07:08:47;9.60;90.10
35700;DHT22;21818;51.078;12.108;2024-01-06T07:11:13;9.60;90.20
35700;DHT22;21818;51.078;12.108;2024-01-06T07:13:40;9.60;90.10
35700;DHT22;21818;51.078;12.108;2024-01-06T07:16:06;9.60;90.20
35700;DHT22;21818;51.078;12.108;2024-01-06T07:18:32;9.60;90.10
35700;DHT22;21818;51.078;12.108;2024-01-06T07:20:58;9.50;90.10
35700;DHT22;21818;51.078;12.108;2024-01-06T07:23:24;9.50;90.20
35700;DHT22;21818;51.078;12.108;2024-01-06T07:25:49;9.60;90.30
35700;DHT22;21818;51.078;12.108;2024-01-06T07:28:15;10.00;90.20
35700;DHT22;21818;51.078;12.108;2024-01-06T07:30:40;10.30;89.90
35700;DHT22;21818;51.078;12.108;2024-01-06T07:33:06;10.60;89.60
35700;DHT22;21818;51.078;12.108;2024-01-06T07:35:32;10.80;89.30
35700;DHT22;21818;51.078;12.108;2024-01-06T07:37:57;10.90;89.30
35700;DHT22;21818;51.078;12.108;2024-01-06T07:40:23;11.00;89.10
35700;DHT22;21818;51.078;12.108;2024-01-06T07:42:50;11.20;89.00
35700;DHT22;21818;51.078;12.108;2024-01-06T07:45:17;11.30;88.80
35700;DHT22;21818;51.078;12.108;2024-01-06T07:47:42;11.40;88.70
35700;DHT22;21818;51.078;12.108;2024-01-06T07:50:08;11.50;88.50
35700;DHT22;21818;51.078;12.108;2024-01-06T07:52:34;11.60;88.50
35700;DHT22;21818;51.078;12.108;2024-01-06T07:54:59;11.70;88.40
35700;DHT22;21818;51.078;12.108;2024-01-06T07:57:25;11.70;88.30
35700;DHT22;21818;51.078;12.108;2024-01-06T07:59:50;11.80;88.20
35700;DHT22;21818;51.078;12.108;2024-01-06T08:02:16;11.80;88.10
35700;DHT22;21818;51.078;12.108;2024-01-06T08:04:42;11.80;88.10
35700;DHT22;21818;51.078;12.108;2024-01-06T08:07:08;11.90;88.10
35700;DHT22;21818;51.078;12.108;2024-01-06T08:09:33;11.90;87.90
35700;DHT22;21818;51.078;12.108;2024-01-06T08:11:59;12.00;87.80
35700;DHT22;21818;51.078;12.108;2024-01-06T08:14:25;12.00;87.70
35700;DHT22;21818;51.078;12.108;2024-01-06T08:16:50;12.00;87.60
35700;DHT22;21818;51.078;12.108;2024-01-06T08:19:16;12.10;87.50
35700;DHT22;21818;51.078;12.108;2024-01-06T08:21:41;12.10;87.50
35700;DHT22;21818;51.078;12.108;2024-01-06T08:24:07;12.20;87.40
35700;DHT22;21818;51.078;12.108;2024-01-06T08:26:33;12.20;87.40
35700;DHT22;21818;51.078;12.108;2024-01-06T08:28:58;12.20;87.30
35700;DHT22;21818;51.078;12.108;2024-01-06T08:31:24;12.30;87.20
35700;DHT22;21818;51.078;12.108;2024-01-06T08:33:50;12.30;87.00
35700;DHT22;21818;51.078;12.108;2024-01-06T08:36:15;12.50;87.00
35700;DHT22;21818;51.078;12.108;2024-01-06T08:38:41;12.50;86.80
35700;DHT22;21818;51.078;12.108;2024-01-06T08:41:07;12.50;86.80
35700;DHT22;21818;51.078;12.108;2024-01-06T08:43:32;12.50;86.80
35700;DHT22;21818;51.078;12.108;2024-01-06T08:45:58;12.50;86.70
35700;DHT22;21818;51.078;12.108;2024-01-06T08:48:24;12.50;86.80
35700;DHT22;21818;51.078;12.108;2024-01-06T08:50:50;12.50;86.90
35700;DHT22;21818;51.078;12.108;2024-01-06T08:53:16;12.50;86.90
35700;DHT22;21818;51.078;12.108;2024-01-06T08:55:42;12.50;86.70
35700;DHT22;21818;51.078;12.108;2024-01-06T08:58:07;12.50;86.70
35700;DHT22;21818;51.078;12.108;2024-01-06T09:00:33;12.50;86.60
35700;DHT22;21818;51.078;12.108;2024-01-06T09:02:58;12.50;86.70
35700;DHT22;21818;51.078;12.108;2024-01-06T09:05:25;12.40;86.70
35700;DHT22;21818;51.078;12.108;2024-01-06T09:07:51;12.40;86.70
35700;DHT22;21818;51.078;12.108;2024-01-06T09:10:19;12.40;86.60
35700;DHT22;21818;51.078;12.108;2024-01-06T09:12:45;12.50;86.50
35700;DHT22;21818;51.078;12.108;2024-01-06T09:15:10;12.50;86.30
35700;DHT22;21818;51.078;12.108;2024-01-06T09:17:36;12.60;86.20
35700;DHT22;21818;51.078;12.108;2024-01-06T09:20:02;12.60;85.90
35700;DHT22;21818;51.078;12.108;2024-01-06T09:22:28;12.60;85.80
35700;DHT22;21818;51.078;12.108;2024-01-06T09:24:54;12.70;85.70
35700;DHT22;21818;51.078;12.108;2024-01-06T09:27:19;12.70;85.60
35700;DHT22;21818;51.078;12.108;2024-01-06T09:29:45;12.70;85.60
35700;DHT22;21818;51.078;12.108;2024-01-06T09:32:11;12.70;85.50
35700;DHT22;21818;51.078;12.108;2024-01-06T09:34:37;12.70;85.50
35700;DHT22;21818;51.078;12.108;2024-01-06T09:37:02;12.70;85.40
35700;DHT22;21818;51.078;12.108;2024-01-06T09:39:28;12.70;85.30
35700;DHT22;21818;51.078;12.108;2024-01-06T09:41:56;12.70;85.20
35700;DHT22;21818;51.078;12.108;2024-01-06T09:44:21;12.80;85.10
35700;DHT22;21818;51.078;12.108;2024-01-06T09:46:47;12.80;85.10
35700;DHT22;21818;51.078;12.108;2024-01-06T09:49:14;12.70;85.00
35700;DHT22;21818;51.078;12.108;2024-01-06T09:51:40;12.70;85.00
35700;DHT22;21818;51.078;12.108;2024-01-06T09:54:10;12.60;85.10
35700;DHT22;21818;51.078;12.108;2024-01-06T09:56:39;12.50;85.30
35700;DHT22;21818;51.078;12.108;2024-01-06T09:59:05;12.50;85.40
35700;DHT22;21818;51.078;12.108;2024-01-06T10:01:30;12.50;85.60
35700;DHT22;21818;51.078;12.108;2024-01-06T10:03:56;12.50;85.50
35700;DHT22;21818;51.078;12.108;2024-01-06T10:06:22;12.50;85.60
35700;DHT22;21818;51.078;12.108;2024-01-06T10:08:51;12.50;85.60
35700;DHT22;21818;51.078;12.108;2024-01-06T10:11:18;12.50;85.50
35700;DHT22;21818;51.078;12.108;2024-01-06T10:13:44;12.50;85.40
35700;DHT22;21818;51.078;12.108;2024-01-06T10:16:10;12.60;85.40
35700;DHT22;21818;51.078;12.108;2024-01-06T10:18:35;12.60;85.50
35700;DHT22;21818;51.078;12.108;2024-01-06T10:21:05;12.60;85.50
35700;DHT22;21818;51.078;12.108;2024-01-06T10:23:32;12.60;85.60
35700;DHT22;21818;51.078;12.108;2024-01-06T10:25:57;12.70;85.60
35700;DHT22;21818;51.078;12.108;2024-01-06T10:28:23;12.70;85.50
35700;DHT22;21818;51.078;12.108;2024-01-06T10:30:52;12.80;85.50
35700;DHT22;21818;51.078;12.108;2024-01-06T10:33:19;12.80;85.40
35700;DHT22;21818;51.078;12.108;2024-01-06T10:35:46;12.80;85.40
35700;DHT22;21818;51.078;12.108;2024-01-06T10:38:12;12.80;85.40
35700;DHT22;21818;51.078;12.108;2024-01-06T10:40:37;12.80;85.40
35700;DHT22;21818;51.078;12.108;2024-01-06T10:43:03;12.80;85.30
35700;DHT22;21818;51.078;12.108;2024-01-06T10:45:30;12.90;85.30
35700;DHT22;21818;51.078;12.108;2024-01-06T10:47:55;12.90;85.30
35700;DHT22;21818;51.078;12.108;2024-01-06T10:50:22;12.90;85.40
35700;DHT22;21818;51.078;12.108;2024-01-06T10:52:48;12.90;85.30
35700;DHT22;21818;51.078;12.108;2024-01-06T10:55:15;12.90;85.20
35700;DHT22;21818;51.078;12.108;2024-01-06T10:57:46;12.90;85.20
35700;DHT22;21818;51.078;12.108;2024-01-06T11:00:12;12.90;85.20
35700;DHT22;21818;51.078;12.108;2024-01-06T11:02:39;12.90;85.20
35700;DHT22;21818;51.078;12.108;2024-01-06T11:05:05;12.90;85.30
35700;DHT22;21818;51.078;12.108;2024-01-06T11:07:33;12.90;85.30
35700;DHT22;21818;51.078;12.108;2024-01-06T11:10:07;12.80;85.30
35700;DHT22;21818;51.078;12.108;2024-01-06T11:12:34;12.80;85.40
35700;DHT22;21818;51.078;12.108;2024-01-06T11:15:00;12.90;85.40
35700;DHT22;21818;51.078;12.108;2024-01-06T11:17:54;12.90;85.30
35700;DHT22;21818;51.078;12.108;2024-01-06T11:20:24;13.00;85.00
35700;DHT22;21818;51.078;12.108;2024-01-06T11:22:51;13.10;84.90
35700;DHT22;21818;51.078;12.108;2024-01-06T11:25:21;13.10;84.70
35700;DHT22;21818;51.078;12.108;2024-01-06T11:27:48;13.20;84.70
35700;DHT22;21818;51.078;12.108;2024-01-06T11:30:32;13.20;84.60
35700;DHT22;21818;51.078;12.108;2024-01-06T11:32:59;13.20;84.40
35700;DHT22;21818;51.078;12.108;2024-01-06T11:35:27;13.20;84.50
35700;DHT22;21818;51.078;12.108;2024-01-06T11:37:54;13.20;84.50
35700;DHT22;21818;51.078;12.108;2024-01-06T11:45:31;13.10;85.10
35700;DHT22;21818;51.078;12.108;2024-01-06T11:48:02;13.10;84.70
35700;DHT22;21818;51.078;12.108;2024-01-06T11:50:33;13.10;84.60
35700;DHT22;21818;51.078;12.108;2024-01-06T11:52:59;13.10;84.70
35700;DHT22;21818;51.078;12.108;2024-01-06T11:55:26;13.10;84.60
35700;DHT22;21818;51.078;12.108;2024-01-06T11:57:57;13.10;84.60
35700;DHT22;21818;51.078;12.108;2024-01-06T12:00:27;13.10;84.60
35700;DHT22;21818;51.078;12.108;2024-01-06T12:03:00;13.10;84.60
35700;DHT22;21818;51.078;12.108;2024-01-06T12:05:27;13.10;84.50
35700;DHT22;21818;51.078;12.108;2024-01-06T12:08:03;13.20;84.50
35700;DHT22;21818;51.078;12.108;2024-01-06T12:10:33;13.20;84.40
35700;DHT22;21818;51.078;12.108;2024-01-06T12:13:03;13.20;84.40
35700;DHT22;21818;51.078;12.108;2024-01-06T12:15:32;13.20;84.30
35700;DHT22;21818;51.078;12.108;2024-01-06T12:17:58;13.20;84.30
35700;DHT22;21818;51.078;12.108;2024-01-06T12:20:26;13.20;84.20
35700;DHT22;21818;51.078;12.108;2024-01-06T12:22:52;13.30;84.20
35700;DHT22;21818;51.078;12.108;2024-01-06T12:25:20;13.30;84.10
35700;DHT22;21818;51.078;12.108;2024-01-06T12:27:46;13.40;84.10
35700;DHT22;21818;51.078;12.108;2024-01-06T12:30:22;13.40;84.00
35700;DHT22;21818;51.078;12.108;2024-01-06T12:32:50;13.40;83.90
35700;DHT22;21818;51.078;12.108;2024-01-06T12:35:17;13.40;83.90
35700;DHT22;21818;51.078;12.108;2024-01-06T12:37:43;13.40;83.90
35700;DHT22;21818;51.078;12.108;2024-01-06T12:40:11;13.40;84.40
35700;DHT22;21818;51.078;12.108;2024-01-06T12:42:38;13.40;83.90
35700;DHT22;21818;51.078;12.108;2024-01-06T12:45:05;13.40;83.90
35700;DHT22;21818;51.078;12.108;2024-01-06T12:47:31;13.30;83.80
35700;DHT22;21818;51.078;12.108;2024-01-06T12:49:57;13.30;83.90
35700;DHT22;21818;51.078;12.108;2024-01-06T12:52:23;13.30;84.00
35700;DHT22;21818;51.078;12.108;2024-01-06T12:54:49;13.40;83.90
35700;DHT22;21818;51.078;12.108;2024-01-06T12:57:15;13.40;83.80
35700;DHT22;21818;51.078;12.108;2024-01-06T12:59:40;13.40;83.70
35700;DHT22;21818;51.078;12.108;2024-01-06T13:02:06;13.40;83.70
35700;DHT22;21818;51.078;12.108;2024-01-06T13:04:32;13.40;83.60
35700;DHT22;21818;51.078;12.108;2024-01-06T13:06:58;13.40;83.60
35700;DHT22;21818;51.078;12.108;2024-01-06T13:09:23;13.40;83.50
35700;DHT22;21818;51.078;12.108;2024-01-06T13:11:50;13.40;83.60
35700;DHT22;21818;51.078;12.108;2024-01-06T13:14:17;13.40;83.60
35700;DHT22;21818;51.078;12.108;2024-01-06T13:16:43;13.40;83.50
35700;DHT22;21818;51.078;12.108;2024-01-06T13:19:08;13.40;83.60
35700;DHT22;21818;51.078;12.108;2024-01-06T13:21:34;13.40;83.60
35700;DHT22;21818;51.078;12.108;2024-01-06T13:24:01;13.40;83.90
35700;DHT22;21818;51.078;12.108;2024-01-06T13:26:28;13.30;83.70
35700;DHT22;21818;51.078;12.108;2024-01-06T13:28:54;13.30;83.70
35700;DHT22;21818;51.078;12.108;2024-01-06T13:31:19;13.30;83.80
35700;DHT22;21818;51.078;12.108;2024-01-06T13:33:46;13.30;83.70
35700;DHT22;21818;51.078;12.108;2024-01-06T13:36:11;13.40;83.70
35700;DHT22;21818;51.078;12.108;2024-01-06T13:38:37;13.40;83.60
35700;DHT22;21818;51.078;12.108;2024-01-06T13:41:03;13.40;83.50
35700;DHT22;21818;51.078;12.108;2024-01-06T13:43:29;13.40;83.50
35700;DHT22;21818;51.078;12.108;2024-01-06T13:45:54;13.50;83.40
35700;DHT22;21818;51.078;12.108;2024-01-06T13:48:21;13.50;83.40
35700;DHT22;21818;51.078;12.108;2024-01-06T13:50:47;13.40;83.30
35700;DHT22;21818;51.078;12.108;2024-01-06T13:53:13;13.40;83.30
35700;DHT22;21818;51.078;12.108;2024-01-06T13:55:39;13.40;83.30
35700;DHT22;21818;51.078;12.108;2024-01-06T13:58:04;13.40;83.40
35700;DHT22;21818;51.078;12.108;2024-01-06T14:00:30;13.40;83.50
35700;DHT22;21818;51.078;12.108;2024-01-06T14:02:56;13.40;83.50
35700;DHT22;21818;51.078;12.108;2024-01-06T14:05:22;13.40;83.40
35700;DHT22;21818;51.078;12.108;2024-01-06T14:07:48;13.40;83.40
35700;DHT22;21818;51.078;12.108;2024-01-06T14:10:16;13.40;83.30
35700;DHT22;21818;51.078;12.108;2024-01-06T14:12:42;13.40;83.30
35700;DHT22;21818;51.078;12.108;2024-01-06T14:15:08;13.40;83.30
35700;DHT22;21818;51.078;12.108;2024-01-06T14:17:34;13.40;83.30
35700;DHT22;21818;51.078;12.108;2024-01-06T14:20:00;13.40;83.30
35700;DHT22;21818;51.078;12.108;2024-01-06T14:22:27;13.40;83.30
35700;DHT22;21818;51.078;12.108;2024-01-06T14:24:52;13.40;83.30
35700;DHT22;21818;51.078;12.108;2024-01-06T14:27:18;13.40;83.30
35700;DHT22;21818;51.078;12.108;2024-01-06T14:29:44;13.40;83.30
35700;DHT22;21818;51.078;12.108;2024-01-06T14:32:10;13.40;83.30
35700;DHT22;21818;51.078;12.108;2024-01-06T14:34:36;13.40;83.30
35700;DHT22;21818;51.078;12.108;2024-01-06T14:37:01;13.40;83.30
35700;DHT22;21818;51.078;12.108;2024-01-06T14:39:27;13.40;83.40
35700;DHT22;21818;51.078;12.108;2024-01-06T14:41:52;13.40;83.40
35700;DHT22;21818;51.078;12.108;2024-01-06T14:44:18;13.40;83.30
35700;DHT22;21818;51.078;12.108;2024-01-06T14:46:47;13.40;83.30
35700;DHT22;21818;51.078;12.108;2024-01-06T14:49:13;13.40;83.30
35700;DHT22;21818;51.078;12.108;2024-01-06T14:51:39;13.40;83.30
35700;DHT22;21818;51.078;12.108;2024-01-06T14:54:04;13.40;83.50
35700;DHT22;21818;51.078;12.108;2024-01-06T14:56:30;13.40;83.60
35700;DHT22;21818;51.078;12.108;2024-01-06T14:58:56;13.40;83.70
35700;DHT22;21818;51.078;12.108;2024-01-06T15:01:22;13.40;83.70
35700;DHT22;21818;51.078;12.108;2024-01-06T15:03:47;13.40;83.70
35700;DHT22;21818;51.078;12.108;2024-01-06T15:06:13;13.40;83.80
35700;DHT22;21818;51.078;12.108;2024-01-06T15:08:39;13.40;83.70
35700;DHT22;21818;51.078;12.108;2024-01-06T15:11:04;13.40;83.70
35700;DHT22;21818;51.078;12.108;2024-01-06T15:13:32;13.40;83.70
35700;DHT22;21818;51.078;12.108;2024-01-06T15:15:57;13.40;83.70
35700;DHT22;21818;51.078;12.108;2024-01-06T15:18:23;13.40;83.70
35700;DHT22;21818;51.078;12.108;2024-01-06T15:20:49;13.40;83.70